createdAt,value
2023-03-12T00:04:36.639Z,1.83
2023-03-12T00:09:39.571Z,2.35
2023-03-12T00:14:42.313Z,2.33
2023-03-12T00:19:45.786Z,2.65
2023-03-12T00:24:52.804Z,2.15
2023-03-12T00:29:55.704Z,2.17
2023-03-12T00:34:58.573Z,2.35
2023-03-12T00:40:02.242Z,3.47
2023-03-12T00:45:05.347Z,2.47
2023-03-12T00:50:08.983Z,2.30
2023-03-12T00:55:11.623Z,2.17
2023-03-12T01:00:14.412Z,2.10
2023-03-12T01:05:17.274Z,2.42
2023-03-12T01:10:20.927Z,2.50
2023-03-12T01:15:23.593Z,2.40
2023-03-12T01:20:26.702Z,2.33
2023-03-12T01:25:29.486Z,2.20
2023-03-12T01:30:32.294Z,2.40
2023-03-12T01:35:39.768Z,2.70
2023-03-12T01:40:43.416Z,2.42
2023-03-12T01:46:05.421Z,2.10
2023-03-12T01:56:12.363Z,2.30
2023-03-12T02:01:18.258Z,2.60
2023-03-12T02:06:23.630Z,2.53
2023-03-12T02:11:26.513Z,2.60
2023-03-12T02:16:29.932Z,2.70
2023-03-12T02:21:34.366Z,2.60
2023-03-12T02:26:37.831Z,3.00
2023-03-12T02:31:52.292Z,2.80
2023-03-12T02:36:55.186Z,2.55
2023-03-12T02:41:59.668Z,2.75
2023-03-12T02:47:03.115Z,2.42
2023-03-12T02:52:06.153Z,2.50
2023-03-12T02:57:09.490Z,3.50
2023-03-12T03:02:13.353Z,2.40
2023-03-12T03:07:16.695Z,2.80
2023-03-12T03:12:19.870Z,2.75
2023-03-12T03:17:24.602Z,2.55
2023-03-12T03:22:27.417Z,2.95
2023-03-12T03:27:30.316Z,2.70
2023-03-12T03:32:33.390Z,2.88
2023-03-12T03:37:36.627Z,3.10
2023-03-12T03:42:39.910Z,2.90
2023-03-12T03:47:42.946Z,3.25
2023-03-12T03:52:46.308Z,3.10
2023-03-12T03:57:49.447Z,2.90
2023-03-12T04:02:52.372Z,3.17
2023-03-12T04:07:55.506Z,3.17
2023-03-12T04:13:01.536Z,3.08
2023-03-12T04:18:04.671Z,3.25
2023-03-12T04:23:07.657Z,3.50
2023-03-12T04:28:10.345Z,3.05
2023-03-12T04:33:14.842Z,3.40
2023-03-12T04:38:17.810Z,3.38
2023-03-12T04:43:21.291Z,2.83
2023-03-12T04:48:25.611Z,3.65
2023-03-12T04:53:29.215Z,3.97
2023-03-12T04:58:32.668Z,4.15
2023-03-12T05:03:35.716Z,4.25
2023-03-12T05:08:38.723Z,4.53
2023-03-12T05:13:41.661Z,4.15
2023-03-12T05:18:45.360Z,4.20
2023-03-12T05:23:48.383Z,4.45
2023-03-12T05:28:52.565Z,4.60
2023-03-12T05:33:56.681Z,5.07
2023-03-12T05:39:00.280Z,4.70
2023-03-12T05:44:06.784Z,5.93
2023-03-12T05:49:11.149Z,5.15
2023-03-12T05:54:14.533Z,5.22
2023-03-12T05:59:18.518Z,5.28
2023-03-12T06:04:22.204Z,5.10
2023-03-12T06:09:25.087Z,5.32
2023-03-12T06:14:29.168Z,4.75
2023-03-12T06:19:33.354Z,4.45
2023-03-12T06:24:36.160Z,4.80
2023-03-12T06:29:42.021Z,4.55
2023-03-12T06:34:45.169Z,4.55
2023-03-12T06:39:47.852Z,4.70
2023-03-12T06:44:50.725Z,4.78
2023-03-12T06:49:53.340Z,4.28
2023-03-12T06:54:56.186Z,4.47
2023-03-12T06:59:59.126Z,4.53
2023-03-12T07:05:02.024Z,4.55
2023-03-12T07:10:06.698Z,4.18
2023-03-12T07:15:09.816Z,4.18
2023-03-12T07:20:12.668Z,4.00
2023-03-12T07:25:17.250Z,4.40
2023-03-12T07:30:23.828Z,3.75
2023-03-12T07:35:26.958Z,3.63
2023-03-12T07:40:29.783Z,3.70
2023-03-12T07:45:32.675Z,3.50
2023-03-12T07:50:36.560Z,3.80
2023-03-12T07:55:39.407Z,3.90
2023-03-12T08:00:42.340Z,3.25
2023-03-12T08:05:45.607Z,3.33
2023-03-12T08:10:48.240Z,3.85
2023-03-12T08:15:54.548Z,3.72
2023-03-12T08:20:57.194Z,3.65
2023-03-12T08:26:00.123Z,3.53
2023-03-12T08:31:13.432Z,3.78
2023-03-12T08:36:16.473Z,3.35
2023-03-12T08:41:27.104Z,3.28
2023-03-12T08:46:29.962Z,3.05
2023-03-12T08:51:32.918Z,2.65
2023-03-12T08:56:38.947Z,3.20
2023-03-12T09:01:43.865Z,3.53
2023-03-12T09:06:46.994Z,2.88
2023-03-12T09:11:49.816Z,3.10
2023-03-12T09:16:52.698Z,4.43
2023-03-12T09:21:55.333Z,2.53
2023-03-12T09:26:57.926Z,2.70
2023-03-12T09:32:05.930Z,3.50
2023-03-12T09:37:09.039Z,3.15
2023-03-12T09:42:18.940Z,2.08
2023-03-12T09:47:29.201Z,2.28
2023-03-12T09:52:34.354Z,1.80
2023-03-12T09:57:37.181Z,2.67
2023-03-12T10:02:39.965Z,3.15
2023-03-12T10:07:46.107Z,1.90
2023-03-12T10:13:01.400Z,2.00
2023-03-12T10:18:10.713Z,1.73
2023-03-12T10:23:16.759Z,2.17
2023-03-12T10:28:21.637Z,1.67
2023-03-12T10:33:26.017Z,1.55
2023-03-12T10:38:30.084Z,1.80
2023-03-12T10:43:34.612Z,1.92
2023-03-12T10:48:37.452Z,1.85
2023-03-12T10:53:45.264Z,2.08
2023-03-12T10:58:52.078Z,2.20
2023-03-12T11:04:09.145Z,2.08
2023-03-12T11:09:20.369Z,1.70
2023-03-12T11:14:23.357Z,2.90
2023-03-12T11:19:27.953Z,1.77
2023-03-12T11:24:31.180Z,1.52
2023-03-12T11:29:40.685Z,1.50
2023-03-12T11:34:47.936Z,1.50
2023-03-12T11:39:50.574Z,5.32
2023-03-12T11:45:14.305Z,1.30
2023-03-12T11:50:19.865Z,1.50
2023-03-12T11:55:38.387Z,1.95
2023-03-12T12:00:47.800Z,2.53
2023-03-12T12:05:53.524Z,2.65
2023-03-12T12:11:15.109Z,2.38
2023-03-12T12:16:23.829Z,2.90
2023-03-12T12:21:26.725Z,2.30
2023-03-12T12:26:32.453Z,8.88
2023-03-12T12:31:45.113Z,2.13
2023-03-12T12:41:53.276Z,2.45
2023-03-12T12:46:59.289Z,2.22
2023-03-12T12:52:03.760Z,2.17
2023-03-12T12:57:25.490Z,1.88
2023-03-12T13:02:31.487Z,2.85
2023-03-12T13:07:34.701Z,2.33
2023-03-12T13:12:48.594Z,2.42
2023-03-12T13:17:57.380Z,2.58
2023-03-12T13:23:20.096Z,2.20
2023-03-12T13:28:25.841Z,2.22
2023-03-12T13:33:40.611Z,2.80
2023-03-12T13:38:54.301Z,2.10
2023-03-12T13:43:56.956Z,2.00
2023-03-12T13:49:01.483Z,1.77
2023-03-12T13:54:04.916Z,2.25
2023-03-12T13:59:08.595Z,1.60
2023-03-12T14:04:13.664Z,1.85
2023-03-12T14:09:39.217Z,1.75
2023-03-12T14:14:46.094Z,1.60
2023-03-12T14:19:51.596Z,1.77
2023-03-12T14:24:57.335Z,1.80
2023-03-12T14:30:12.748Z,1.60
2023-03-12T14:35:15.429Z,1.70
2023-03-12T14:40:23.241Z,1.70
2023-03-12T14:45:27.719Z,3.00
2023-03-12T14:50:38.186Z,1.70
2023-03-12T14:55:41.108Z,1.52
2023-03-12T15:00:45.957Z,1.70
2023-03-12T15:05:49.535Z,1.50
2023-03-12T15:10:54.571Z,1.30
2023-03-12T15:15:58.536Z,1.30
2023-03-12T15:21:02.451Z,1.25
2023-03-12T15:26:12.548Z,1.70
2023-03-12T15:31:16.930Z,1.30
2023-03-12T15:36:27.417Z,1.20
2023-03-12T15:41:33.363Z,1.65
2023-03-12T15:46:36.307Z,1.90
2023-03-12T15:51:40.940Z,3.13
2023-03-12T15:56:44.019Z,1.92
2023-03-12T16:01:46.829Z,2.13
2023-03-12T16:06:50.194Z,2.40
2023-03-12T16:11:54.583Z,3.00
2023-03-12T16:16:57.286Z,2.83
2023-03-12T16:22:00.279Z,2.22
2023-03-12T16:27:07.433Z,2.30
2023-03-12T16:32:14.243Z,2.85
2023-03-12T16:37:16.834Z,3.00
2023-03-12T16:42:20.275Z,2.80
2023-03-12T16:47:23.173Z,3.25
2023-03-12T16:52:28.647Z,3.30
2023-03-12T16:57:35.650Z,4.60
2023-03-12T17:02:38.733Z,3.95
2023-03-12T17:07:41.847Z,3.25
2023-03-12T17:12:45.943Z,3.38
2023-03-12T17:17:49.932Z,3.92
2023-03-12T17:22:52.538Z,5.05
2023-03-12T17:27:56.720Z,3.83
2023-03-12T17:33:18.415Z,3.88
2023-03-12T17:38:21.293Z,3.90
2023-03-12T17:43:24.565Z,5.72
2023-03-12T17:48:28.581Z,4.43
2023-03-12T17:53:31.388Z,4.60
2023-03-12T17:58:33.913Z,3.58
2023-03-12T18:03:36.721Z,3.50
2023-03-12T18:08:39.432Z,3.72
2023-03-12T18:13:41.957Z,3.70
2023-03-12T18:18:44.487Z,5.18
2023-03-12T18:23:47.283Z,3.60
2023-03-12T18:28:49.718Z,3.63
2023-03-12T18:33:52.737Z,3.88
2023-03-12T18:38:55.556Z,6.30
2023-03-12T18:43:58.345Z,7.10
2023-03-12T18:49:08.002Z,5.30
2023-03-12T18:54:12.855Z,5.50
2023-03-12T18:59:15.524Z,6.25
2023-03-12T19:04:19.607Z,5.38
2023-03-12T19:09:22.413Z,5.45
2023-03-12T19:14:28.700Z,6.47
2023-03-12T19:19:31.557Z,6.00
2023-03-12T19:24:34.466Z,5.97
2023-03-12T19:29:37.009Z,6.47
2023-03-12T19:34:42.078Z,6.45
2023-03-12T19:39:44.715Z,6.72
2023-03-12T19:44:49.473Z,6.85
2023-03-12T19:49:52.359Z,7.05
2023-03-12T19:55:04.370Z,7.60
2023-03-12T20:05:12.541Z,7.70
2023-03-12T20:10:15.728Z,7.45
2023-03-12T20:15:18.750Z,7.18
2023-03-12T20:20:21.909Z,9.13
2023-03-12T20:25:24.624Z,7.95
2023-03-12T20:30:27.223Z,8.70
2023-03-12T20:35:29.893Z,9.95
2023-03-12T20:40:32.837Z,9.48
2023-03-12T20:45:35.776Z,9.77
2023-03-12T20:50:39.296Z,9.80
2023-03-12T20:55:42.147Z,10.05
2023-03-12T21:00:44.897Z,9.73
2023-03-12T21:05:55.228Z,10.02
2023-03-12T21:10:57.964Z,10.70
2023-03-12T21:16:00.702Z,9.75
2023-03-12T21:21:04.497Z,12.63
2023-03-12T21:26:09.347Z,10.55
2023-03-12T21:31:14.376Z,10.52
2023-03-12T21:36:17.233Z,11.70
2023-03-12T21:41:20.161Z,11.40
2023-03-12T21:46:25.018Z,11.43
2023-03-12T21:51:27.784Z,11.40
2023-03-12T21:56:30.724Z,11.25
2023-03-12T22:01:33.408Z,11.63
2023-03-12T22:06:36.277Z,12.30
2023-03-12T22:11:39.279Z,12.15
2023-03-12T22:16:42.009Z,11.98
2023-03-12T22:21:44.637Z,11.90
2023-03-12T22:26:47.351Z,11.30
2023-03-12T22:31:50.102Z,11.02
2023-03-12T22:36:52.892Z,11.45
2023-03-12T22:41:55.796Z,10.75
2023-03-12T22:46:58.374Z,11.60
2023-03-12T22:52:01.220Z,10.85
2023-03-12T22:57:04.169Z,9.10
2023-03-12T23:02:07.125Z,9.80
2023-03-12T23:07:14.363Z,9.73
2023-03-12T23:12:18.808Z,9.52
2023-03-12T23:17:21.783Z,9.73
2023-03-12T23:22:24.355Z,8.55
2023-03-12T23:27:27.103Z,8.85
2023-03-12T23:32:30.088Z,8.60
2023-03-12T23:37:32.653Z,8.45
2023-03-12T23:42:35.121Z,7.38
2023-03-12T23:47:37.979Z,8.05
2023-03-12T23:52:40.769Z,7.90
2023-03-12T23:57:43.424Z,7.95
